Catàleg de serveis del Meteocat
Campanya meteocatpedra

Dades de l'estació automàtica Rellinars

?
?
Resum diari 21:30 TU
Dades diàries de l'estació meteorològica
Temperatura mitjana 6.9 °C
Temperatura màxima 12.9 °C 15:29 TU
Temperatura mínima 2.7 °C 6:22 TU
Humitat relativa mitjana 81%
Precipitació acumulada 0.2 mm
Ratxa màxima del vent (2 m) 11.2 km/h - 74º 17:48 TU
Irradiació solar global 5.9 MJ/m2

El tram horari està expressat en Temps Universal (TU). Cal sumar una hora en horari d'hivern i dues en horari d'estiu per passar a l'hora oficial.

Rellinars

Metadades estació meteorol´gica
Municipi Rellinars
Comarca Vallès Occidental
Altitud 421 m
Data alta 18.02.1998
Estat actual Operativa
Dades de període
Període
TU
TM
°C
TX
°C
TN
°C
HRM
%
PPT
mm
VVM (2 m)
km/h
DVM (2 m)
graus
VVX (2 m)
km/h
RS
W/m2
00:00 - 00:30 7.1 7.3 6.8 77 0.0 1.1 28 5.0 0
00:30 - 01:00 6.9 7.0 6.8 78 0.0 0.4 22 4.0 0
01:00 - 01:30 6.7 6.8 6.6 80 0.0 0.7 3 3.6 0
01:30 - 02:00 6.5 6.6 6.4 81 0.0 2.5 42 7.9 0
02:00 - 02:30 6.3 6.5 6.1 81 0.0 1.4 26 6.1 0
02:30 - 03:00 6.0 6.6 5.1 82 0.0 0.4 346 3.2 0
03:00 - 03:30 5.3 5.8 4.3 85 0.0 0.7 321 3.6 0
03:30 - 04:00 3.8 4.3 3.4 91 0.0 0.7 324 4.3 0
04:00 - 04:30 3.2 3.4 3.1 93 0.0 0.7 297 6.5 0
04:30 - 05:00 2.9 3.1 2.8 94 0.0 0.0 321 2.2 0
05:00 - 05:30 2.8 2.9 2.8 95 0.0 0.0 311 2.2 0
05:30 - 06:00 2.8 2.9 2.8 95 0.0 1.1 244 4.0 0
06:00 - 06:30 2.8 2.9 2.7 94 0.0 0.4 258 2.9 0
06:30 - 07:00 2.8 3.0 2.8 94 0.0 0.0 194 2.5 4
07:00 - 07:30 3.4 3.6 3.1 93 0.0 0.7 223 2.9 14
07:30 - 08:00 3.7 3.8 3.6 91 0.0 0.0 216 2.2 21
08:00 - 08:30 3.9 4.1 3.8 90 0.0 0.0 180 0.7 30
08:30 - 09:00 4.3 4.8 4.1 89 0.0 0.4 162 2.2 47
09:00 - 09:30 5.0 5.3 4.8 86 0.0 0.0 265 1.8 64
09:30 - 10:00 5.5 5.6 5.3 85 0.0 0.4 282 2.9 62
10:00 - 10:30 5.4 5.6 5.2 90 0.2 0.4 21 2.9 44
10:30 - 11:00 5.6 6.1 5.3 93 0.0 0.4 85 2.9 85
11:00 - 11:30 6.5 6.8 6.1 91 0.0 0.0 305 2.9 138
11:30 - 12:00 7.4 8.2 6.9 84 0.0 1.1 321 3.6 235
12:00 - 12:30 9.4 10.3 8.1 74 0.0 1.1 317 4.7 399
12:30 - 13:00 10.3 11.0 9.7 68 0.0 0.7 296 4.0 362
13:00 - 13:30 11.2 11.7 10.7 64 0.0 1.1 326 4.3 459
13:30 - 14:00 11.9 12.1 11.6 63 0.0 1.1 278 4.7 404
14:00 - 14:30 11.9 12.3 11.6 65 0.0 1.8 147 6.5 320
14:30 - 15:00 12.4 12.8 11.9 63 0.0 2.5 189 8.6 258
15:00 - 15:30 12.5 12.9 12.3 63 0.0 3.2 205 10.1 185
15:30 - 16:00 12.4 12.8 11.9 64 0.0 1.8 254 9.7 113
16:00 - 16:30 10.9 11.9 10.1 65 0.0 1.8 231 4.7 21
16:30 - 17:00 9.4 10.1 8.4 73 0.0 2.5 111 6.8 2
17:00 - 17:30 8.3 8.6 7.6 79 0.0 2.5 70 10.4 0
17:30 - 18:00 7.5 7.9 7.2 81 0.0 6.1 61 11.2 0
18:00 - 18:30 7.8 8.8 7.4 80 0.0 3.2 61 7.9 0
18:30 - 19:00 7.9 8.4 7.1 80 0.0 2.9 60 7.2 0
19:00 - 19:30 7.6 8.5 6.9 81 0.0 4.0 86 8.6 0
19:30 - 20:00 7.9 8.6 7.7 78 0.0 2.9 74 7.2 0
20:00 - 20:30 8.1 8.7 7.7 74 0.0 1.1 95 5.4 0
20:30 - 21:00 8.0 8.6 7.4 72 0.0 1.4 58 5.8 0
21:00 - 21:30 7.0 7.9 6.5 77 0.0 2.9 74 6.8 0
21:30 - 22:00 6.7 7.4 6.1 77 0.0 2.9 78 6.5 0

Les dades en taronja només han passat un control de qualitat automàtic. Resta pendent la seva validació definitiva.